sensor_id;sensor_type;location;lat;lon;timestamp;temperature;humidity
14473;DHT22;7322;50.872;4.386;2024-03-17T00:02:08;20.30;99.90
14473;DHT22;7322;50.872;4.386;2024-03-17T00:04:35;20.30;99.90
14473;DHT22;7322;50.872;4.386;2024-03-17T00:07:08;20.20;99.90
14473;DHT22;7322;50.872;4.386;2024-03-17T00:09:35;20.20;99.90
14473;DHT22;7322;50.872;4.386;2024-03-17T00:12:08;20.20;99.90
14473;DHT22;7322;50.872;4.386;2024-03-17T00:14:37;20.20;99.90
14473;DHT22;7322;50.872;4.386;2024-03-17T00:17:07;20.20;99.90
14473;DHT22;7322;50.872;4.386;2024-03-17T00:19:34;20.20;99.90
14473;DHT22;7322;50.872;4.386;2024-03-17T00:22:22;20.20;99.90
14473;DHT22;7322;50.872;4.386;2024-03-17T00:24:50;20.10;99.90
14473;DHT22;7322;50.872;4.386;2024-03-17T00:27:23;20.10;99.90
14473;DHT22;7322;50.872;4.386;2024-03-17T00:29:50;20.10;99.90
14473;DHT22;7322;50.872;4.386;2024-03-17T00:32:36;20.10;99.90
14473;DHT22;7322;50.872;4.386;2024-03-17T00:35:06;20.20;99.90
14473;DHT22;7322;50.872;4.386;2024-03-17T00:37:42;20.10;99.90
14473;DHT22;7322;50.872;4.386;2024-03-17T00:40:19;20.10;99.90
14473;DHT22;7322;50.872;4.386;2024-03-17T00:42:59;20.10;99.90
14473;DHT22;7322;50.872;4.386;2024-03-17T00:46:00;20.10;99.90
14473;DHT22;7322;50.872;4.386;2024-03-17T00:48:26;20.10;99.90
14473;DHT22;7322;50.872;4.386;2024-03-17T00:51:00;20.10;99.90
14473;DHT22;7322;50.872;4.386;2024-03-17T00:53:31;20.00;99.90
14473;DHT22;7322;50.872;4.386;2024-03-17T00:55:58;20.00;99.90
14473;DHT22;7322;50.872;4.386;2024-03-17T00:58:25;20.00;99.90
14473;DHT22;7322;50.872;4.386;2024-03-17T01:00:54;20.10;99.90
14473;DHT22;7322;50.872;4.386;2024-03-17T01:03:20;20.00;99.90
14473;DHT22;7322;50.872;4.386;2024-03-17T01:05:48;20.00;99.90
14473;DHT22;7322;50.872;4.386;2024-03-17T01:08:19;20.00;99.90
14473;DHT22;7322;50.872;4.386;2024-03-17T01:10:48;20.00;99.90
14473;DHT22;7322;50.872;4.386;2024-03-17T01:13:15;20.00;99.90
14473;DHT22;7322;50.872;4.386;2024-03-17T01:15:43;20.00;99.90
14473;DHT22;7322;50.872;4.386;2024-03-17T01:18:14;20.00;99.90
14473;DHT22;7322;50.872;4.386;2024-03-17T01:20:41;20.00;99.90
14473;DHT22;7322;50.872;4.386;2024-03-17T01:23:08;20.00;99.90
14473;DHT22;7322;50.872;4.386;2024-03-17T01:25:44;20.00;99.90
14473;DHT22;7322;50.872;4.386;2024-03-17T01:28:14;20.00;99.90
14473;DHT22;7322;50.872;4.386;2024-03-17T01:30:41;20.00;99.90
14473;DHT22;7322;50.872;4.386;2024-03-17T01:33:10;20.00;99.90
14473;DHT22;7322;50.872;4.386;2024-03-17T01:35:38;20.00;99.90
14473;DHT22;7322;50.872;4.386;2024-03-17T01:38:10;19.90;99.90
14473;DHT22;7322;50.872;4.386;2024-03-17T01:40:38;20.00;99.90
14473;DHT22;7322;50.872;4.386;2024-03-17T01:43:10;20.00;99.90
14473;DHT22;7322;50.872;4.386;2024-03-17T01:45:39;20.00;99.90
14473;DHT22;7322;50.872;4.386;2024-03-17T01:48:27;20.00;99.90
14473;DHT22;7322;50.872;4.386;2024-03-17T01:51:01;19.90;99.90
14473;DHT22;7322;50.872;4.386;2024-03-17T01:54:04;19.90;99.90
14473;DHT22;7322;50.872;4.386;2024-03-17T01:56:36;19.90;99.90
14473;DHT22;7322;50.872;4.386;2024-03-17T01:59:08;19.90;99.90
14473;DHT22;7322;50.872;4.386;2024-03-17T02:01:39;19.90;99.90
14473;DHT22;7322;50.872;4.386;2024-03-17T02:04:08;19.90;99.90
14473;DHT22;7322;50.872;4.386;2024-03-17T02:06:36;19.90;99.90
14473;DHT22;7322;50.872;4.386;2024-03-17T02:09:08;19.80;99.90
14473;DHT22;7322;50.872;4.386;2024-03-17T02:11:37;19.90;99.90
14473;DHT22;7322;50.872;4.386;2024-03-17T02:14:09;19.90;99.90
14473;DHT22;7322;50.872;4.386;2024-03-17T02:16:40;19.90;99.90
14473;DHT22;7322;50.872;4.386;2024-03-17T02:19:09;19.90;99.90
14473;DHT22;7322;50.872;4.386;2024-03-17T02:21:38;19.80;99.90
14473;DHT22;7322;50.872;4.386;2024-03-17T02:24:14;19.80;99.90
14473;DHT22;7322;50.872;4.386;2024-03-17T02:26:41;19.80;99.90
14473;DHT22;7322;50.872;4.386;2024-03-17T02:29:08;19.80;99.90
14473;DHT22;7322;50.872;4.386;2024-03-17T02:31:36;19.80;99.90
14473;DHT22;7322;50.872;4.386;2024-03-17T02:34:06;19.80;99.90
14473;DHT22;7322;50.872;4.386;2024-03-17T02:36:32;19.80;99.90
14473;DHT22;7322;50.872;4.386;2024-03-17T02:38:58;19.80;99.90
14473;DHT22;7322;50.872;4.386;2024-03-17T02:41:46;19.80;99.90
14473;DHT22;7322;50.872;4.386;2024-03-17T02:44:13;19.80;99.90
14473;DHT22;7322;50.872;4.386;2024-03-17T02:46:40;19.80;99.90
14473;DHT22;7322;50.872;4.386;2024-03-17T02:49:14;19.70;99.90
14473;DHT22;7322;50.872;4.386;2024-03-17T02:51:49;19.70;99.90
14473;DHT22;7322;50.872;4.386;2024-03-17T02:54:19;19.70;99.90
14473;DHT22;7322;50.872;4.386;2024-03-17T02:56:54;19.70;99.90
14473;DHT22;7322;50.872;4.386;2024-03-17T02:59:23;19.70;99.90
14473;DHT22;7322;50.872;4.386;2024-03-17T03:01:52;19.70;99.90
14473;DHT22;7322;50.872;4.386;2024-03-17T03:04:35;19.70;99.90
14473;DHT22;7322;50.872;4.386;2024-03-17T03:07:17;19.70;99.90
14473;DHT22;7322;50.872;4.386;2024-03-17T03:10:00;19.60;99.90
14473;DHT22;7322;50.872;4.386;2024-03-17T03:13:00;19.60;99.90
14473;DHT22;7322;50.872;4.386;2024-03-17T03:15:35;19.60;99.90
14473;DHT22;7322;50.872;4.386;2024-03-17T03:18:12;19.60;99.90
14473;DHT22;7322;50.872;4.386;2024-03-17T03:20:40;19.60;99.90
14473;DHT22;7322;50.872;4.386;2024-03-17T03:23:09;19.60;99.90
14473;DHT22;7322;50.872;4.386;2024-03-17T03:25:37;19.60;99.90
14473;DHT22;7322;50.872;4.386;2024-03-17T03:28:12;19.60;99.90
14473;DHT22;7322;50.872;4.386;2024-03-17T03:30:40;19.50;99.90
14473;DHT22;7322;50.872;4.386;2024-03-17T03:33:12;19.60;99.90
14473;DHT22;7322;50.872;4.386;2024-03-17T03:35:39;19.60;99.90
14473;DHT22;7322;50.872;4.386;2024-03-17T03:38:11;19.50;99.90
14473;DHT22;7322;50.872;4.386;2024-03-17T03:40:40;19.60;99.90
14473;DHT22;7322;50.872;4.386;2024-03-17T03:43:15;19.60;99.90
14473;DHT22;7322;50.872;4.386;2024-03-17T03:45:43;19.60;99.90
14473;DHT22;7322;50.872;4.386;2024-03-17T03:48:16;19.60;99.90
14473;DHT22;7322;50.872;4.386;2024-03-17T03:50:43;19.50;99.90
14473;DHT22;7322;50.872;4.386;2024-03-17T03:53:18;19.50;99.90
14473;DHT22;7322;50.872;4.386;2024-03-17T03:55:45;19.50;99.90
14473;DHT22;7322;50.872;4.386;2024-03-17T03:58:20;19.50;99.90
14473;DHT22;7322;50.872;4.386;2024-03-17T04:00:48;19.50;99.90
14473;DHT22;7322;50.872;4.386;2024-03-17T04:03:17;19.50;99.90
14473;DHT22;7322;50.872;4.386;2024-03-17T04:05:44;19.50;99.90
14473;DHT22;7322;50.872;4.386;2024-03-17T04:08:17;19.50;99.90
14473;DHT22;7322;50.872;4.386;2024-03-17T04:10:44;19.50;99.90
14473;DHT22;7322;50.872;4.386;2024-03-17T04:13:13;19.50;99.90
14473;DHT22;7322;50.872;4.386;2024-03-17T04:15:43;19.50;99.90
14473;DHT22;7322;50.872;4.386;2024-03-17T04:18:12;19.50;99.90
14473;DHT22;7322;50.872;4.386;2024-03-17T04:20:41;19.50;99.90
14473;DHT22;7322;50.872;4.386;2024-03-17T04:23:16;19.50;99.90
14473;DHT22;7322;50.872;4.386;2024-03-17T04:25:43;19.40;99.90
14473;DHT22;7322;50.872;4.386;2024-03-17T04:28:13;19.40;99.90
14473;DHT22;7322;50.872;4.386;2024-03-17T04:30:41;19.50;99.90
14473;DHT22;7322;50.872;4.386;2024-03-17T04:33:16;19.50;99.90
14473;DHT22;7322;50.872;4.386;2024-03-17T04:35:45;19.40;99.90
14473;DHT22;7322;50.872;4.386;2024-03-17T04:38:18;19.50;99.90
14473;DHT22;7322;50.872;4.386;2024-03-17T04:40:45;19.50;99.90
14473;DHT22;7322;50.872;4.386;2024-03-17T04:43:16;19.40;99.90
14473;DHT22;7322;50.872;4.386;2024-03-17T04:45:43;19.40;99.90
14473;DHT22;7322;50.872;4.386;2024-03-17T04:48:21;19.40;99.90
14473;DHT22;7322;50.872;4.386;2024-03-17T04:50:48;19.40;99.90
14473;DHT22;7322;50.872;4.386;2024-03-17T04:53:16;19.40;99.90
14473;DHT22;7322;50.872;4.386;2024-03-17T04:55:43;19.40;99.90
14473;DHT22;7322;50.872;4.386;2024-03-17T04:58:17;19.40;99.90
14473;DHT22;7322;50.872;4.386;2024-03-17T05:00:45;19.40;99.90
14473;DHT22;7322;50.872;4.386;2024-03-17T05:03:17;19.40;99.90
14473;DHT22;7322;50.872;4.386;2024-03-17T05:05:46;19.40;99.90
14473;DHT22;7322;50.872;4.386;2024-03-17T05:08:13;19.40;99.90
14473;DHT22;7322;50.872;4.386;2024-03-17T05:10:40;19.40;99.90
14473;DHT22;7322;50.872;4.386;2024-03-17T05:13:14;19.40;99.90
14473;DHT22;7322;50.872;4.386;2024-03-17T05:15:42;19.40;99.90
14473;DHT22;7322;50.872;4.386;2024-03-17T05:18:16;19.40;99.90
14473;DHT22;7322;50.872;4.386;2024-03-17T05:20:46;19.40;99.90
14473;DHT22;7322;50.872;4.386;2024-03-17T05:23:32;19.40;99.90
14473;DHT22;7322;50.872;4.386;2024-03-17T05:26:05;19.40;99.90
14473;DHT22;7322;50.872;4.386;2024-03-17T05:28:59;19.40;99.90
14473;DHT22;7322;50.872;4.386;2024-03-17T05:31:32;19.40;99.90
14473;DHT22;7322;50.872;4.386;2024-03-17T05:34:01;19.40;99.90
14473;DHT22;7322;50.872;4.386;2024-03-17T05:36:35;19.40;99.90
14473;DHT22;7322;50.872;4.386;2024-03-17T05:39:11;19.30;99.90
14473;DHT22;7322;50.872;4.386;2024-03-17T05:41:39;19.40;99.90
14473;DHT22;7322;50.872;4.386;2024-03-17T05:44:16;19.40;99.90
14473;DHT22;7322;50.872;4.386;2024-03-17T05:46:44;19.40;99.90
14473;DHT22;7322;50.872;4.386;2024-03-17T05:49:14;19.30;99.90
14473;DHT22;7322;50.872;4.386;2024-03-17T05:51:42;19.30;99.90
14473;DHT22;7322;50.872;4.386;2024-03-17T05:54:16;19.30;99.90
14473;DHT22;7322;50.872;4.386;2024-03-17T05:56:44;19.40;99.90
14473;DHT22;7322;50.872;4.386;2024-03-17T05:59:14;19.30;99.90
14473;DHT22;7322;50.872;4.386;2024-03-17T06:01:41;19.30;99.90
14473;DHT22;7322;50.872;4.386;2024-03-17T06:04:09;19.40;99.90
14473;DHT22;7322;50.872;4.386;2024-03-17T06:06:35;19.30;99.90
14473;DHT22;7322;50.872;4.386;2024-03-17T06:09:04;19.30;99.90
14473;DHT22;7322;50.872;4.386;2024-03-17T06:11:34;19.30;99.90
14473;DHT22;7322;50.872;4.386;2024-03-17T06:14:02;19.30;99.90
14473;DHT22;7322;50.872;4.386;2024-03-17T06:16:34;19.30;99.90
14473;DHT22;7322;50.872;4.386;2024-03-17T06:19:01;19.30;99.90
14473;DHT22;7322;50.872;4.386;2024-03-17T06:21:29;19.40;99.90
14473;DHT22;7322;50.872;4.386;2024-03-17T06:23:56;19.30;99.90
14473;DHT22;7322;50.872;4.386;2024-03-17T06:26:27;19.30;99.90
14473;DHT22;7322;50.872;4.386;2024-03-17T06:28:59;19.30;99.90
14473;DHT22;7322;50.872;4.386;2024-03-17T06:31:26;19.30;99.90
14473;DHT22;7322;50.872;4.386;2024-03-17T06:33:53;19.30;99.90
14473;DHT22;7322;50.872;4.386;2024-03-17T06:36:20;19.40;99.90
14473;DHT22;7322;50.872;4.386;2024-03-17T06:38:47;19.50;99.90
14473;DHT22;7322;50.872;4.386;2024-03-17T06:41:14;19.70;99.90
14473;DHT22;7322;50.872;4.386;2024-03-17T06:43:45;19.80;99.90
14473;DHT22;7322;50.872;4.386;2024-03-17T06:46:12;19.90;99.90
14473;DHT22;7322;50.872;4.386;2024-03-17T06:48:39;20.20;99.90
14473;DHT22;7322;50.872;4.386;2024-03-17T06:51:07;20.30;99.90
14473;DHT22;7322;50.872;4.386;2024-03-17T06:53:34;20.40;99.90
14473;DHT22;7322;50.872;4.386;2024-03-17T06:56:02;20.50;99.90
14473;DHT22;7322;50.872;4.386;2024-03-17T06:58:29;20.60;99.90
14473;DHT22;7322;50.872;4.386;2024-03-17T07:00:59;20.70;99.90
14473;DHT22;7322;50.872;4.386;2024-03-17T07:03:27;20.80;99.90
14473;DHT22;7322;50.872;4.386;2024-03-17T07:05:55;20.80;99.90
14473;DHT22;7322;50.872;4.386;2024-03-17T07:08:23;20.90;99.90
14473;DHT22;7322;50.872;4.386;2024-03-17T07:10:57;21.00;99.90
14473;DHT22;7322;50.872;4.386;2024-03-17T07:13:28;21.00;99.90
14473;DHT22;7322;50.872;4.386;2024-03-17T07:15:55;21.10;99.90
14473;DHT22;7322;50.872;4.386;2024-03-17T07:18:26;21.20;99.90
14473;DHT22;7322;50.872;4.386;2024-03-17T07:20:56;21.20;99.90
14473;DHT22;7322;50.872;4.386;2024-03-17T07:23:24;21.20;99.90
14473;DHT22;7322;50.872;4.386;2024-03-17T07:25:52;21.20;99.90
14473;DHT22;7322;50.872;4.386;2024-03-17T07:28:32;21.20;99.90
14473;DHT22;7322;50.872;4.386;2024-03-17T07:31:02;21.20;99.90
14473;DHT22;7322;50.872;4.386;2024-03-17T07:33:31;21.30;99.90
14473;DHT22;7322;50.872;4.386;2024-03-17T07:36:04;21.20;99.90
14473;DHT22;7322;50.872;4.386;2024-03-17T07:38:46;21.20;99.90
14473;DHT22;7322;50.872;4.386;2024-03-17T07:41:23;21.20;99.90
14473;DHT22;7322;50.872;4.386;2024-03-17T07:44:01;21.20;99.90
14473;DHT22;7322;50.872;4.386;2024-03-17T07:46:28;21.10;99.90
14473;DHT22;7322;50.872;4.386;2024-03-17T07:49:04;21.10;99.90
14473;DHT22;7322;50.872;4.386;2024-03-17T07:51:33;21.10;99.90
14473;DHT22;7322;50.872;4.386;2024-03-17T07:54:02;21.00;99.90
14473;DHT22;7322;50.872;4.386;2024-03-17T07:56:29;21.00;99.90
14473;DHT22;7322;50.872;4.386;2024-03-17T07:58:56;21.00;99.90
14473;DHT22;7322;50.872;4.386;2024-03-17T08:01:23;21.00;99.90
14473;DHT22;7322;50.872;4.386;2024-03-17T08:03:51;21.00;99.90
14473;DHT22;7322;50.872;4.386;2024-03-17T08:06:22;21.00;99.90
14473;DHT22;7322;50.872;4.386;2024-03-17T08:08:50;20.90;99.90
14473;DHT22;7322;50.872;4.386;2024-03-17T08:11:21;20.90;99.90
14473;DHT22;7322;50.872;4.386;2024-03-17T08:13:49;20.80;99.90
14473;DHT22;7322;50.872;4.386;2024-03-17T08:16:23;20.80;99.90
14473;DHT22;7322;50.872;4.386;2024-03-17T08:18:51;20.80;99.90
14473;DHT22;7322;50.872;4.386;2024-03-17T08:21:25;20.80;99.90
14473;DHT22;7322;50.872;4.386;2024-03-17T08:23:55;20.80;99.90
14473;DHT22;7322;50.872;4.386;2024-03-17T08:26:29;20.70;99.90
14473;DHT22;7322;50.872;4.386;2024-03-17T08:29:07;20.70;99.90
14473;DHT22;7322;50.872;4.386;2024-03-17T08:31:42;20.70;99.90
14473;DHT22;7322;50.872;4.386;2024-03-17T08:34:10;20.70;99.90
14473;DHT22;7322;50.872;4.386;2024-03-17T08:36:41;20.70;99.90
14473;DHT22;7322;50.872;4.386;2024-03-17T08:39:12;20.60;99.90
14473;DHT22;7322;50.872;4.386;2024-03-17T08:41:54;20.60;99.90
14473;DHT22;7322;50.872;4.386;2024-03-17T08:44:28;20.60;99.90
14473;DHT22;7322;50.872;4.386;2024-03-17T08:47:06;20.60;99.90
14473;DHT22;7322;50.872;4.386;2024-03-17T08:49:34;20.60;99.90
14473;DHT22;7322;50.872;4.386;2024-03-17T08:52:09;20.50;99.90
14473;DHT22;7322;50.872;4.386;2024-03-17T08:54:36;20.50;99.90
14473;DHT22;7322;50.872;4.386;2024-03-17T08:57:11;20.50;99.90
14473;DHT22;7322;50.872;4.386;2024-03-17T08:59:38;20.50;99.90
14473;DHT22;7322;50.872;4.386;2024-03-17T09:02:27;20.50;99.90
14473;DHT22;7322;50.872;4.386;2024-03-17T09:04:56;20.50;99.90
14473;DHT22;7322;50.872;4.386;2024-03-17T09:07:24;20.50;99.90
14473;DHT22;7322;50.872;4.386;2024-03-17T09:09:51;20.50;99.90
14473;DHT22;7322;50.872;4.386;2024-03-17T09:12:33;20.50;99.90
14473;DHT22;7322;50.872;4.386;2024-03-17T09:15:15;20.50;99.90
14473;DHT22;7322;50.872;4.386;2024-03-17T09:17:44;20.50;99.90
14473;DHT22;7322;50.872;4.386;2024-03-17T09:20:20;20.40;99.90
14473;DHT22;7322;50.872;4.386;2024-03-17T09:22:48;20.50;99.90
14473;DHT22;7322;50.872;4.386;2024-03-17T09:25:16;20.50;99.90
14473;DHT22;7322;50.872;4.386;2024-03-17T09:27:49;20.40;99.90
14473;DHT22;7322;50.872;4.386;2024-03-17T09:30:16;20.40;99.90
14473;DHT22;7322;50.872;4.386;2024-03-17T09:32:46;20.40;99.90
14473;DHT22;7322;50.872;4.386;2024-03-17T09:35:13;20.40;99.90
14473;DHT22;7322;50.872;4.386;2024-03-17T09:37:40;20.40;99.90
14473;DHT22;7322;50.872;4.386;2024-03-17T09:40:13;20.40;99.90
14473;DHT22;7322;50.872;4.386;2024-03-17T09:43:00;20.40;99.90
14473;DHT22;7322;50.872;4.386;2024-03-17T09:45:27;20.40;99.90
14473;DHT22;7322;50.872;4.386;2024-03-17T09:48:03;20.40;99.90
14473;DHT22;7322;50.872;4.386;2024-03-17T09:50:38;20.30;99.90
14473;DHT22;7322;50.872;4.386;2024-03-17T09:53:29;20.30;99.90
14473;DHT22;7322;50.872;4.386;2024-03-17T09:56:10;20.30;99.90
14473;DHT22;7322;50.872;4.386;2024-03-17T09:58:41;20.30;99.90
14473;DHT22;7322;50.872;4.386;2024-03-17T10:01:18;20.30;99.90
14473;DHT22;7322;50.872;4.386;2024-03-17T10:03:53;20.30;99.90
14473;DHT22;7322;50.872;4.386;2024-03-17T10:06:23;20.30;99.90
14473;DHT22;7322;50.872;4.386;2024-03-17T10:08:58;20.30;99.90
14473;DHT22;7322;50.872;4.386;2024-03-17T10:11:41;20.40;99.90
14473;DHT22;7322;50.872;4.386;2024-03-17T10:14:22;20.40;99.90
14473;DHT22;7322;50.872;4.386;2024-03-17T10:16:52;20.40;99.90
14473;DHT22;7322;50.872;4.386;2024-03-17T10:19:25;20.40;99.90
14473;DHT22;7322;50.872;4.386;2024-03-17T10:22:03;20.40;99.90
14473;DHT22;7322;50.872;4.386;2024-03-17T10:27:55;20.40;99.90
14473;DHT22;7322;50.872;4.386;2024-03-17T10:30:24;20.30;99.90
14473;DHT22;7322;50.872;4.386;2024-03-17T10:32:56;20.40;99.90
14473;DHT22;7322;50.872;4.386;2024-03-17T10:35:35;20.40;99.90
14473;DHT22;7322;50.872;4.386;2024-03-17T10:38:12;20.30;99.90
14473;DHT22;7322;50.872;4.386;2024-03-17T10:40:41;20.30;99.90
14473;DHT22;7322;50.872;4.386;2024-03-17T10:43:33;20.40;99.90
14473;DHT22;7322;50.872;4.386;2024-03-17T10:46:19;20.30;99.90
14473;DHT22;7322;50.872;4.386;2024-03-17T10:48:54;20.30;99.90
14473;DHT22;7322;50.872;4.386;2024-03-17T10:51:23;20.30;99.90
14473;DHT22;7322;50.872;4.386;2024-03-17T10:53:50;20.30;99.90
14473;DHT22;7322;50.872;4.386;2024-03-17T10:56:30;20.40;99.90
14473;DHT22;7322;50.872;4.386;2024-03-17T10:59:02;20.40;99.90
14473;DHT22;7322;50.872;4.386;2024-03-17T11:01:30;20.40;99.90
14473;DHT22;7322;50.872;4.386;2024-03-17T11:04:01;20.40;99.90
14473;DHT22;7322;50.872;4.386;2024-03-17T11:06:30;20.40;99.90
14473;DHT22;7322;50.872;4.386;2024-03-17T11:08:58;20.40;99.90
14473;DHT22;7322;50.872;4.386;2024-03-17T11:11:35;20.40;99.90
14473;DHT22;7322;50.872;4.386;2024-03-17T11:17:19;20.40;99.90
14473;DHT22;7322;50.872;4.386;2024-03-17T11:20:15;20.40;99.90
14473;DHT22;7322;50.872;4.386;2024-03-17T11:22:42;20.40;99.90
14473;DHT22;7322;50.872;4.386;2024-03-17T11:25:36;20.40;99.90
14473;DHT22;7322;50.872;4.386;2024-03-17T11:28:08;20.40;99.90
14473;DHT22;7322;50.872;4.386;2024-03-17T11:30:42;20.40;99.90
14473;DHT22;7322;50.872;4.386;2024-03-17T11:36:38;20.30;99.90
14473;DHT22;7322;50.872;4.386;2024-03-17T11:39:14;20.30;99.90
14473;DHT22;7322;50.872;4.386;2024-03-17T11:42:05;20.30;99.90
14473;DHT22;7322;50.872;4.386;2024-03-17T11:44:36;20.30;99.90
14473;DHT22;7322;50.872;4.386;2024-03-17T11:47:09;20.30;99.90
14473;DHT22;7322;50.872;4.386;2024-03-17T11:49:36;20.30;99.90
14473;DHT22;7322;50.872;4.386;2024-03-17T11:52:13;20.30;99.90
14473;DHT22;7322;50.872;4.386;2024-03-17T11:54:41;20.30;99.90
14473;DHT22;7322;50.872;4.386;2024-03-17T11:57:10;20.30;99.90
14473;DHT22;7322;50.872;4.386;2024-03-17T11:59:38;20.30;99.90
14473;DHT22;7322;50.872;4.386;2024-03-17T12:02:13;20.30;99.90
14473;DHT22;7322;50.872;4.386;2024-03-17T12:04:43;20.30;99.90
14473;DHT22;7322;50.872;4.386;2024-03-17T12:07:14;20.30;99.90
14473;DHT22;7322;50.872;4.386;2024-03-17T12:09:41;20.30;99.90
14473;DHT22;7322;50.872;4.386;2024-03-17T12:12:16;20.20;99.90
14473;DHT22;7322;50.872;4.386;2024-03-17T12:14:43;20.30;99.90
14473;DHT22;7322;50.872;4.386;2024-03-17T12:17:21;20.30;99.90
14473;DHT22;7322;50.872;4.386;2024-03-17T12:19:50;20.30;99.90
14473;DHT22;7322;50.872;4.386;2024-03-17T12:22:19;20.30;99.90
14473;DHT22;7322;50.872;4.386;2024-03-17T12:24:48;20.30;99.90
14473;DHT22;7322;50.872;4.386;2024-03-17T12:27:17;20.40;99.90
14473;DHT22;7322;50.872;4.386;2024-03-17T12:29:47;20.50;99.90
14473;DHT22;7322;50.872;4.386;2024-03-17T12:32:18;20.50;99.90
14473;DHT22;7322;50.872;4.386;2024-03-17T12:34:49;20.60;99.90
14473;DHT22;7322;50.872;4.386;2024-03-17T12:37:17;20.70;99.90
14473;DHT22;7322;50.872;4.386;2024-03-17T12:39:47;20.80;99.90
14473;DHT22;7322;50.872;4.386;2024-03-17T12:42:19;20.80;99.90
14473;DHT22;7322;50.872;4.386;2024-03-17T12:44:50;20.90;99.90
14473;DHT22;7322;50.872;4.386;2024-03-17T12:47:21;20.90;99.90
14473;DHT22;7322;50.872;4.386;2024-03-17T12:49:49;21.00;99.90
14473;DHT22;7322;50.872;4.386;2024-03-17T12:52:26;21.00;99.90
14473;DHT22;7322;50.872;4.386;2024-03-17T12:55:00;21.00;99.90
14473;DHT22;7322;50.872;4.386;2024-03-17T12:57:41;21.00;99.90
14473;DHT22;7322;50.872;4.386;2024-03-17T13:00:26;21.00;99.90
14473;DHT22;7322;50.872;4.386;2024-03-17T13:03:07;21.00;99.90
14473;DHT22;7322;50.872;4.386;2024-03-17T13:05:34;21.00;99.90
14473;DHT22;7322;50.872;4.386;2024-03-17T13:08:08;21.00;99.90
14473;DHT22;7322;50.872;4.386;2024-03-17T13:10:43;21.00;99.90
14473;DHT22;7322;50.872;4.386;2024-03-17T13:13:16;21.00;99.90
14473;DHT22;7322;50.872;4.386;2024-03-17T13:15:44;20.90;99.90
14473;DHT22;7322;50.872;4.386;2024-03-17T13:18:17;20.90;99.90
14473;DHT22;7322;50.872;4.386;2024-03-17T13:20:47;20.90;99.90
14473;DHT22;7322;50.872;4.386;2024-03-17T13:23:28;20.90;99.90
14473;DHT22;7322;50.872;4.386;2024-03-17T13:25:57;20.90;99.90
14473;DHT22;7322;50.872;4.386;2024-03-17T13:28:25;20.80;99.90
14473;DHT22;7322;50.872;4.386;2024-03-17T13:30:52;20.80;99.90
14473;DHT22;7322;50.872;4.386;2024-03-17T13:33:21;20.80;99.90
14473;DHT22;7322;50.872;4.386;2024-03-17T13:35:55;20.80;99.90
14473;DHT22;7322;50.872;4.386;2024-03-17T13:38:26;20.80;99.90
14473;DHT22;7322;50.872;4.386;2024-03-17T13:40:57;20.80;99.90
14473;DHT22;7322;50.872;4.386;2024-03-17T13:43:24;20.80;99.90
14473;DHT22;7322;50.872;4.386;2024-03-17T13:45:53;20.70;99.90
14473;DHT22;7322;50.872;4.386;2024-03-17T13:48:20;20.70;99.90
14473;DHT22;7322;50.872;4.386;2024-03-17T13:50:48;20.70;99.90
14473;DHT22;7322;50.872;4.386;2024-03-17T13:53:26;20.70;99.90
14473;DHT22;7322;50.872;4.386;2024-03-17T13:55:56;20.70;99.90
14473;DHT22;7322;50.872;4.386;2024-03-17T13:58:30;20.70;99.90
14473;DHT22;7322;50.872;4.386;2024-03-17T14:01:13;20.70;99.90
14473;DHT22;7322;50.872;4.386;2024-03-17T14:03:51;20.70;99.90
14473;DHT22;7322;50.872;4.386;2024-03-17T14:06:37;20.70;99.90
14473;DHT22;7322;50.872;4.386;2024-03-17T14:09:20;20.60;99.90
14473;DHT22;7322;50.872;4.386;2024-03-17T14:11:56;20.60;99.90
14473;DHT22;7322;50.872;4.386;2024-03-17T14:14:34;20.60;99.90
14473;DHT22;7322;50.872;4.386;2024-03-17T14:17:02;20.70;99.90
14473;DHT22;7322;50.872;4.386;2024-03-17T14:19:30;20.60;99.90
14473;DHT22;7322;50.872;4.386;2024-03-17T14:21:59;20.60;99.90
14473;DHT22;7322;50.872;4.386;2024-03-17T14:24:28;20.60;99.90
14473;DHT22;7322;50.872;4.386;2024-03-17T14:27:16;20.60;99.90
14473;DHT22;7322;50.872;4.386;2024-03-17T14:29:43;20.60;99.90
14473;DHT22;7322;50.872;4.386;2024-03-17T14:32:28;20.60;99.90
14473;DHT22;7322;50.872;4.386;2024-03-17T14:35:01;20.60;99.90
14473;DHT22;7322;50.872;4.386;2024-03-17T14:37:30;20.60;99.90
14473;DHT22;7322;50.872;4.386;2024-03-17T14:40:08;20.60;99.90
14473;DHT22;7322;50.872;4.386;2024-03-17T14:42:43;20.50;99.90
14473;DHT22;7322;50.872;4.386;2024-03-17T14:45:12;20.50;99.90
14473;DHT22;7322;50.872;4.386;2024-03-17T14:47:44;20.50;99.90
14473;DHT22;7322;50.872;4.386;2024-03-17T14:50:17;20.50;99.90
14473;DHT22;7322;50.872;4.386;2024-03-17T14:52:54;20.50;99.90
14473;DHT22;7322;50.872;4.386;2024-03-17T14:55:34;20.50;99.90
14473;DHT22;7322;50.872;4.386;2024-03-17T14:58:08;20.50;99.90
14473;DHT22;7322;50.872;4.386;2024-03-17T15:00:50;20.50;99.90
14473;DHT22;7322;50.872;4.386;2024-03-17T15:03:25;20.40;99.90
14473;DHT22;7322;50.872;4.386;2024-03-17T15:06:00;20.40;99.90
14473;DHT22;7322;50.872;4.386;2024-03-17T15:08:29;20.40;99.90
14473;DHT22;7322;50.872;4.386;2024-03-17T15:11:09;20.40;99.90
14473;DHT22;7322;50.872;4.386;2024-03-17T15:13:50;20.40;99.90
14473;DHT22;7322;50.872;4.386;2024-03-17T15:16:20;20.40;99.90
14473;DHT22;7322;50.872;4.386;2024-03-17T15:18:51;20.40;99.90
14473;DHT22;7322;50.872;4.386;2024-03-17T15:21:24;20.40;99.90
14473;DHT22;7322;50.872;4.386;2024-03-17T15:24:07;20.40;99.90
14473;DHT22;7322;50.872;4.386;2024-03-17T15:26:37;20.30;99.90
14473;DHT22;7322;50.872;4.386;2024-03-17T15:29:14;20.30;99.90
14473;DHT22;7322;50.872;4.386;2024-03-17T15:31:41;20.30;99.90
14473;DHT22;7322;50.872;4.386;2024-03-17T15:34:13;20.30;99.90
14473;DHT22;7322;50.872;4.386;2024-03-17T15:36:48;20.30;99.90
14473;DHT22;7322;50.872;4.386;2024-03-17T15:39:20;20.30;99.90
14473;DHT22;7322;50.872;4.386;2024-03-17T15:41:47;20.30;99.90
14473;DHT22;7322;50.872;4.386;2024-03-17T15:44:20;20.30;99.90
14473;DHT22;7322;50.872;4.386;2024-03-17T15:46:54;20.30;99.90
14473;DHT22;7322;50.872;4.386;2024-03-17T15:49:21;20.20;99.90
14473;DHT22;7322;50.872;4.386;2024-03-17T15:51:49;20.30;99.90
14473;DHT22;7322;50.872;4.386;2024-03-17T15:54:24;20.30;99.90
14473;DHT22;7322;50.872;4.386;2024-03-17T15:56:55;20.20;99.90
14473;DHT22;7322;50.872;4.386;2024-03-17T15:59:24;20.20;99.90
14473;DHT22;7322;50.872;4.386;2024-03-17T16:01:52;20.20;99.90
14473;DHT22;7322;50.872;4.386;2024-03-17T16:04:21;20.20;99.90
14473;DHT22;7322;50.872;4.386;2024-03-17T16:06:53;20.20;99.90
14473;DHT22;7322;50.872;4.386;2024-03-17T16:09:21;20.20;99.90
14473;DHT22;7322;50.872;4.386;2024-03-17T16:11:53;20.20;99.90
14473;DHT22;7322;50.872;4.386;2024-03-17T16:14:35;20.20;99.90
14473;DHT22;7322;50.872;4.386;2024-03-17T16:17:03;20.20;99.90
14473;DHT22;7322;50.872;4.386;2024-03-17T16:19:34;20.10;99.90
14473;DHT22;7322;50.872;4.386;2024-03-17T16:22:11;20.10;99.90
14473;DHT22;7322;50.872;4.386;2024-03-17T16:24:42;20.10;99.90
14473;DHT22;7322;50.872;4.386;2024-03-17T16:27:12;20.10;99.90